createdAt,value
2019-04-22T00:00:30.798Z,9.13
2019-04-22T00:03:01.556Z,8.40
2019-04-22T00:05:52.835Z,8.33
2019-04-22T00:08:24.247Z,7.93
2019-04-22T00:10:54.198Z,7.87
2019-04-22T00:13:25.998Z,10.37
2019-04-22T00:15:54.084Z,10.70
2019-04-22T00:18:36.203Z,8.37
2019-04-22T00:20:58.331Z,8.67
2019-04-22T00:23:24.585Z,9.20
2019-04-22T00:26:03.868Z,8.73
2019-04-22T00:28:33.404Z,9.03
2019-04-22T00:31:06.704Z,8.17
2019-04-22T00:33:31.296Z,8.07
2019-04-22T00:36:04.411Z,8.67
2019-04-22T00:38:38.313Z,8.17
2019-04-22T00:41:05.895Z,11.10
2019-04-22T00:43:43.536Z,8.53
2019-04-22T00:46:05.647Z,9.50
2019-04-22T00:49:11.813Z,10.03
2019-04-22T00:53:40.102Z,7.73
2019-04-22T00:56:11.292Z,11.10
2019-04-22T00:58:40.975Z,13.50
2019-04-22T01:01:14.300Z,7.67
2019-04-22T01:03:50.466Z,8.70
2019-04-22T01:06:15.851Z,11.80
2019-04-22T01:08:53.857Z,9.97
2019-04-22T01:11:17.293Z,8.17
2019-04-22T01:13:44.256Z,8.77
2019-04-22T01:16:17.066Z,10.37
2019-04-22T01:18:43.743Z,10.93
2019-04-22T01:21:23.135Z,9.80
2019-04-22T01:23:40.702Z,9.87
2019-04-22T01:26:09.494Z,9.17
2019-04-22T01:28:39.269Z,11.33
2019-04-22T01:31:03.818Z,9.63
2019-04-22T01:33:35.154Z,10.23
2019-04-22T01:36:13.901Z,8.90
2019-04-22T01:38:54.537Z,10.63
2019-04-22T01:41:25.093Z,8.77
2019-04-22T01:44:09.786Z,11.20
2019-04-22T01:46:29.933Z,9.63
2019-04-22T01:48:57.709Z,14.40
2019-04-22T01:51:28.693Z,9.33
2019-04-22T01:54:03.905Z,9.57
2019-04-22T01:56:27.571Z,11.80
2019-04-22T01:58:49.889Z,11.00
2019-04-22T02:01:30.765Z,10.13
2019-04-22T02:04:02.732Z,10.43
2019-04-22T02:06:39.139Z,10.60
2019-04-22T02:11:38.981Z,9.93
2019-04-22T02:14:05.045Z,10.10
2019-04-22T02:16:36.156Z,14.27
2019-04-22T02:19:11.243Z,10.90
2019-04-22T02:21:38.538Z,9.07
2019-04-22T02:24:10.802Z,11.33
2019-04-22T02:26:35.762Z,9.50
2019-04-22T02:29:03.623Z,10.77
2019-04-22T02:34:13.574Z,11.50
2019-04-22T02:36:43.069Z,11.77
2019-04-22T02:42:00.800Z,13.93
2019-04-22T02:47:01.154Z,12.17
2019-04-22T02:51:40.321Z,10.63
2019-04-22T02:54:33.881Z,13.50
2019-04-22T03:01:51.440Z,11.20
2019-04-22T03:06:43.706Z,12.63
2019-04-22T03:09:25.388Z,12.70
2019-04-22T03:11:58.579Z,14.53
2019-04-22T03:14:38.258Z,13.83
2019-04-22T03:19:36.680Z,12.63
2019-04-22T03:22:12.745Z,12.67
2019-04-22T03:24:25.728Z,13.50
2019-04-22T03:29:46.572Z,10.47
2019-04-22T03:32:31.291Z,11.30
2019-04-22T03:37:20.579Z,13.47
2019-04-22T03:42:07.133Z,12.07
2019-04-22T03:44:45.959Z,12.50
2019-04-22T03:49:46.573Z,12.23
2019-04-22T03:52:15.881Z,9.37
2019-04-22T03:54:45.692Z,12.17
2019-04-22T04:02:21.340Z,10.00
2019-04-22T04:04:43.567Z,8.00
2019-04-22T04:07:31.052Z,8.90
2019-04-22T04:12:28.317Z,9.40
2019-04-22T04:17:20.628Z,11.77
2019-04-22T04:20:05.947Z,7.77
2019-04-22T04:22:30.297Z,8.37
2019-04-22T04:25:19.585Z,10.10
2019-04-22T04:30:05.663Z,9.67
2019-04-22T04:42:32.954Z,7.23
2019-04-22T04:45:11.072Z,9.80
2019-04-22T04:47:43.790Z,11.20
2019-04-22T04:50:05.620Z,8.90
2019-04-22T04:57:33.628Z,8.20
2019-04-22T05:00:35.087Z,10.37
2019-04-22T05:02:40.013Z,9.07
2019-04-22T05:12:45.905Z,11.03
2019-04-22T05:15:09.081Z,9.30
2019-04-22T05:17:37.418Z,7.93
2019-04-22T05:20:04.792Z,7.30
2019-04-22T05:25:05.994Z,9.13
2019-04-22T05:27:34.368Z,8.27
2019-04-22T05:30:21.573Z,5.83
2019-04-22T05:34:59.723Z,9.17
2019-04-22T05:37:32.812Z,6.73
2019-04-22T05:40:14.518Z,8.20
2019-04-22T05:42:29.579Z,7.97
2019-04-22T05:45:05.512Z,7.70
2019-04-22T05:47:35.221Z,5.53
2019-04-22T05:50:02.251Z,7.70
2019-04-22T05:52:31.659Z,8.07
2019-04-22T05:55:11.221Z,6.93
2019-04-22T05:57:31.331Z,8.37
2019-04-22T06:00:18.022Z,7.50
2019-04-22T06:02:47.381Z,6.77
2019-04-22T06:05:14.616Z,7.63
2019-04-22T06:07:38.686Z,7.57
2019-04-22T06:10:15.941Z,7.50
2019-04-22T06:12:31.495Z,6.97
2019-04-22T06:15:11.848Z,7.67
2019-04-22T06:17:47.622Z,7.10
2019-04-22T06:20:09.085Z,5.93
2019-04-22T06:25:20.592Z,10.73
2019-04-22T06:27:48.342Z,5.53
2019-04-22T06:30:15.284Z,6.43
2019-04-22T06:32:48.570Z,13.53
2019-04-22T06:35:24.979Z,6.33
2019-04-22T06:38:09.707Z,6.87
2019-04-22T06:40:24.678Z,5.13
2019-04-22T06:42:53.868Z,8.63
2019-04-22T06:45:24.872Z,7.17
2019-04-22T06:48:09.709Z,7.23
2019-04-22T06:50:23.076Z,5.60
2019-04-22T06:52:54.539Z,6.93
2019-04-22T06:55:33.007Z,4.27
2019-04-22T06:57:51.185Z,5.63
2019-04-22T07:00:24.480Z,8.63
2019-04-22T07:03:26.896Z,9.17
2019-04-22T07:05:28.362Z,5.40
2019-04-22T07:08:04.378Z,5.97
2019-04-22T07:12:58.572Z,10.33
2019-04-22T07:15:44.137Z,5.30
2019-04-22T07:18:04.135Z,3.63
2019-04-22T07:20:30.525Z,4.60
2019-04-22T07:23:03.412Z,6.30
2019-04-22T07:25:33.149Z,8.63
2019-04-22T07:28:01.413Z,2.90
2019-04-22T07:30:31.369Z,3.37
2019-04-22T07:35:42.842Z,4.37
2019-04-22T07:38:06.202Z,3.90
2019-04-22T07:40:40.454Z,4.07
2019-04-22T07:43:05.466Z,3.83
2019-04-22T07:45:40.889Z,6.10
2019-04-22T07:48:11.227Z,9.87
2019-04-22T07:50:49.315Z,4.87
2019-04-22T07:53:05.389Z,3.57
2019-04-22T07:55:39.789Z,6.83
2019-04-22T07:58:11.914Z,4.10
2019-04-22T08:00:38.723Z,5.97
2019-04-22T08:03:12.086Z,12.00
2019-04-22T08:08:17.404Z,10.03
2019-04-22T08:10:46.781Z,6.23
2019-04-22T08:13:12.125Z,10.00
2019-04-22T08:15:47.100Z,4.67
2019-04-22T08:18:28.886Z,5.23
2019-04-22T08:20:42.535Z,3.23
2019-04-22T08:23:16.438Z,5.43
2019-04-22T08:25:44.197Z,4.13
2019-04-22T08:28:17.573Z,3.70
2019-04-22T08:30:47.614Z,4.30
2019-04-22T08:33:22.028Z,4.80
2019-04-22T08:36:06.416Z,5.10
2019-04-22T08:38:14.684Z,4.43
2019-04-22T08:40:58.058Z,5.00
2019-04-22T08:43:36.387Z,6.87
2019-04-22T08:45:56.702Z,4.87
2019-04-22T08:48:30.889Z,5.07
2019-04-22T08:51:00.365Z,4.20
2019-04-22T08:53:31.887Z,4.20
2019-04-22T08:56:07.717Z,4.70
2019-04-22T08:58:50.455Z,3.73
2019-04-22T09:01:06.454Z,5.37
2019-04-22T09:03:33.220Z,4.87
2019-04-22T09:06:04.515Z,4.23
2019-04-22T09:08:35.672Z,4.37
2019-04-22T09:11:11.828Z,5.47
2019-04-22T09:13:35.539Z,3.53
2019-04-22T09:16:17.057Z,4.10
2019-04-22T09:21:15.326Z,5.70
2019-04-22T09:26:08.889Z,6.60
2019-04-22T09:28:44.254Z,7.63
2019-04-22T09:31:15.484Z,11.00
2019-04-22T09:33:38.342Z,11.27
2019-04-22T09:36:16.204Z,10.23
2019-04-22T09:41:11.921Z,7.50
2019-04-22T09:43:50.771Z,7.43
2019-04-22T09:46:14.858Z,7.70
2019-04-22T09:48:48.818Z,7.97
2019-04-22T09:51:15.003Z,7.93
2019-04-22T09:56:17.816Z,8.47
2019-04-22T09:58:44.850Z,6.93
2019-04-22T10:01:22.602Z,4.30
2019-04-22T10:03:51.397Z,7.33
2019-04-22T10:09:02.177Z,9.60
2019-04-22T10:13:54.077Z,9.07
2019-04-22T10:16:25.347Z,27.10
2019-04-22T10:18:52.928Z,9.83
2019-04-22T10:21:35.627Z,11.07
2019-04-22T10:23:50.636Z,9.70
2019-04-22T10:26:27.963Z,22.43
2019-04-22T10:29:01.725Z,9.97
2019-04-22T10:31:34.821Z,12.47
2019-04-22T10:33:46.424Z,17.40
2019-04-22T10:36:01.528Z,13.40
2019-04-22T10:38:32.501Z,9.80
2019-04-22T10:41:02.721Z,11.40
2019-04-22T10:43:33.040Z,13.17
2019-04-22T10:46:04.156Z,11.70
2019-04-22T10:48:34.530Z,12.07
2019-04-22T10:51:04.809Z,13.07
2019-04-22T10:53:35.624Z,14.23
2019-04-22T10:56:07.226Z,13.07
2019-04-22T10:58:38.315Z,15.67
2019-04-22T11:01:07.526Z,16.23
2019-04-22T11:03:39.524Z,14.03
2019-04-22T11:06:09.477Z,15.50
2019-04-22T11:08:43.319Z,14.73
2019-04-22T11:11:21.587Z,14.87
2019-04-22T11:13:39.901Z,14.93
2019-04-22T11:16:09.804Z,11.60
2019-04-22T11:18:41.221Z,15.87
2019-04-22T11:21:11.534Z,14.80
2019-04-22T11:23:40.821Z,15.10
2019-04-22T11:26:12.118Z,17.23
2019-04-22T11:28:43.299Z,16.70
2019-04-22T11:31:12.746Z,16.47
2019-04-22T11:33:44.465Z,15.50
2019-04-22T11:36:13.823Z,24.87
2019-04-22T11:38:49.316Z,16.70
2019-04-22T11:41:16.716Z,17.77
2019-04-22T11:43:47.239Z,17.40
2019-04-22T11:46:15.853Z,19.63
2019-04-22T11:48:47.617Z,19.10
2019-04-22T11:51:18.259Z,18.63
2019-04-22T11:53:47.428Z,16.83
2019-04-22T11:56:18.765Z,19.57
2019-04-22T11:58:48.957Z,18.73
2019-04-22T12:01:19.380Z,19.97
2019-04-22T12:03:49.981Z,14.83
2019-04-22T12:06:21.967Z,15.97
2019-04-22T12:08:51.920Z,18.90
2019-04-22T12:11:22.870Z,24.77
2019-04-22T12:13:54.032Z,19.23
2019-04-22T12:16:23.494Z,20.07
2019-04-22T12:18:55.384Z,18.77
2019-04-22T12:21:24.560Z,18.10
2019-04-22T12:23:55.078Z,14.63
2019-04-22T12:26:26.945Z,14.53
2019-04-22T12:28:57.278Z,15.63
2019-04-22T12:31:27.242Z,15.57
2019-04-22T12:33:57.481Z,15.53
2019-04-22T12:36:28.761Z,14.47
2019-04-22T12:38:59.717Z,13.43
2019-04-22T12:41:29.152Z,12.50
2019-04-22T12:44:01.001Z,12.73
2019-04-22T12:46:30.406Z,13.47
2019-04-22T12:49:02.272Z,14.20
2019-04-22T12:51:31.598Z,11.83
2019-04-22T12:54:03.397Z,13.17
2019-04-22T12:56:33.411Z,12.53
2019-04-22T12:59:03.896Z,12.63
2019-04-22T13:01:34.997Z,13.13
2019-04-22T13:04:09.105Z,12.10
2019-04-22T13:06:35.576Z,13.47
2019-04-22T13:09:08.396Z,13.73
2019-04-22T13:11:38.859Z,11.80
2019-04-22T13:14:08.962Z,12.30
2019-04-22T13:16:38.727Z,12.73
2019-04-22T13:19:12.822Z,11.67
2019-04-22T13:21:40.646Z,9.97
2019-04-22T13:24:10.995Z,10.77
2019-04-22T13:26:41.207Z,10.17
2019-04-22T13:29:12.764Z,9.80
2019-04-22T13:31:42.537Z,8.50
2019-04-22T13:34:25.533Z,11.00
2019-04-22T13:36:44.913Z,8.83
2019-04-22T13:39:13.272Z,9.93
2019-04-22T13:41:48.594Z,9.77
2019-04-22T13:44:14.698Z,9.37
2019-04-22T13:47:02.099Z,14.40
2019-04-22T13:49:54.145Z,9.17
2019-04-22T13:52:24.505Z,7.67
2019-04-22T13:54:50.416Z,9.10
2019-04-22T13:57:04.911Z,10.33
2019-04-22T13:59:27.157Z,8.67
2019-04-22T14:02:00.709Z,6.67
2019-04-22T14:04:34.578Z,7.37
2019-04-22T14:07:05.159Z,5.60
2019-04-22T14:09:35.952Z,6.10
2019-04-22T14:12:07.318Z,10.00
2019-04-22T14:14:37.574Z,9.00
2019-04-22T14:17:07.202Z,8.67
2019-04-22T14:19:37.169Z,7.77
2019-04-22T14:22:07.774Z,7.13
2019-04-22T14:24:38.639Z,6.87
2019-04-22T14:27:20.741Z,6.27
2019-04-22T14:29:39.810Z,7.10
2019-04-22T14:32:17.100Z,5.97
2019-04-22T14:34:40.608Z,5.30
2019-04-22T14:37:12.022Z,7.33
2019-04-22T14:39:41.976Z,7.50
2019-04-22T14:42:28.488Z,5.97
2019-04-22T14:45:20.549Z,4.50
2019-04-22T14:47:41.046Z,3.93
2019-04-22T14:50:04.923Z,6.60
2019-04-22T14:52:38.104Z,6.93
2019-04-22T14:54:54.374Z,5.17
2019-04-22T14:57:15.199Z,13.77
2019-04-22T14:59:46.177Z,7.47
2019-04-22T15:02:16.141Z,8.13
2019-04-22T15:04:46.001Z,9.23
2019-04-22T15:07:16.914Z,5.50
2019-04-22T15:09:48.094Z,5.50
2019-04-22T15:12:27.827Z,5.30
2019-04-22T15:14:48.296Z,4.53
2019-04-22T15:17:36.828Z,6.23
2019-04-22T15:20:25.811Z,8.00
2019-04-22T15:22:56.707Z,5.33
2019-04-22T15:25:28.293Z,8.33
2019-04-22T15:27:59.365Z,8.70
2019-04-22T15:30:29.728Z,6.13
2019-04-22T15:32:59.385Z,4.27
2019-04-22T15:35:31.310Z,24.47
2019-04-22T15:38:01.530Z,18.13
2019-04-22T15:40:31.072Z,9.70
2019-04-22T15:43:02.659Z,7.30
2019-04-22T15:45:32.676Z,4.77
2019-04-22T15:48:04.134Z,6.57
2019-04-22T15:50:34.885Z,11.77
2019-04-22T15:53:04.548Z,13.47
2019-04-22T15:55:34.763Z,10.93
2019-04-22T15:58:05.747Z,10.00
2019-04-22T16:00:49.222Z,8.87
2019-04-22T16:03:09.135Z,11.37
2019-04-22T16:05:37.244Z,11.63
2019-04-22T16:08:08.838Z,7.30
2019-04-22T16:10:38.079Z,7.60
2019-04-22T16:13:15.055Z,10.17
2019-04-22T16:15:40.345Z,6.67
2019-04-22T16:18:12.534Z,8.50
2019-04-22T16:20:40.525Z,5.70
2019-04-22T16:23:22.360Z,7.90
2019-04-22T16:25:55.900Z,8.77
2019-04-22T16:28:27.027Z,8.17
2019-04-22T16:30:57.686Z,6.40
2019-04-22T16:33:27.783Z,9.37
2019-04-22T16:35:58.576Z,35.30
2019-04-22T16:38:28.914Z,6.20
2019-04-22T16:40:58.864Z,9.33
2019-04-22T16:43:29.189Z,6.90
2019-04-22T16:46:01.379Z,11.10
2019-04-22T16:48:31.514Z,8.57
2019-04-22T16:51:02.326Z,7.10
2019-04-22T16:53:31.984Z,9.10
2019-04-22T16:56:02.769Z,9.13
2019-04-22T16:58:34.622Z,10.07
2019-04-22T17:01:04.993Z,10.83
2019-04-22T17:03:40.671Z,12.00
2019-04-22T17:06:15.452Z,11.40
2019-04-22T17:08:46.674Z,8.83
2019-04-22T17:11:17.848Z,10.10
2019-04-22T17:13:48.029Z,9.67
2019-04-22T17:16:17.997Z,10.00
2019-04-22T17:18:47.757Z,9.27
2019-04-22T17:21:19.478Z,7.50
2019-04-22T17:23:49.876Z,9.87
2019-04-22T17:26:20.615Z,8.63
2019-04-22T17:28:51.208Z,10.33
2019-04-22T17:31:20.660Z,14.47
2019-04-22T17:33:50.798Z,6.77
2019-04-22T17:36:22.268Z,7.53
2019-04-22T17:39:02.722Z,9.67
2019-04-22T17:41:38.652Z,11.13
2019-04-22T17:44:21.181Z,14.00
2019-04-22T17:46:41.980Z,7.30
2019-04-22T17:49:34.348Z,10.87
2019-04-22T17:52:06.230Z,7.23
2019-04-22T17:54:35.864Z,15.13
2019-04-22T17:57:01.759Z,10.57
2019-04-22T17:59:35.947Z,11.10
2019-04-22T18:01:58.296Z,9.57
2019-04-22T18:04:10.926Z,9.83
2019-04-22T18:07:04.896Z,13.07
2019-04-22T18:09:54.758Z,17.30
2019-04-22T18:12:05.407Z,22.23
2019-04-22T18:14:43.440Z,20.17
2019-04-22T18:17:08.331Z,22.23
2019-04-22T18:19:31.538Z,22.53
2019-04-22T18:21:57.705Z,27.13
2019-04-22T18:24:25.890Z,24.00
2019-04-22T18:27:16.609Z,26.70
2019-04-22T18:29:33.007Z,20.87
2019-04-22T18:31:55.738Z,19.40
2019-04-22T18:34:32.595Z,21.07
2019-04-22T18:37:05.794Z,17.03
2019-04-22T18:39:42.527Z,20.00
2019-04-22T18:42:07.307Z,14.63
2019-04-22T18:44:39.981Z,20.80
2019-04-22T18:47:10.728Z,14.90
2019-04-22T18:49:40.601Z,13.10
2019-04-22T18:53:25.200Z,15.43
2019-04-22T18:55:49.229Z,12.50
2019-04-22T18:58:19.145Z,12.60
2019-04-22T19:00:34.249Z,10.50
2019-04-22T19:03:12.938Z,11.90
2019-04-22T19:06:02.620Z,16.43
2019-04-22T19:08:29.200Z,32.17
2019-04-22T19:11:07.341Z,14.40
2019-04-22T19:16:17.524Z,11.17
2019-04-22T19:18:35.030Z,11.93
2019-04-22T19:21:07.987Z,13.03
2019-04-22T19:23:34.727Z,12.80
2019-04-22T19:25:57.146Z,12.40
2019-04-22T19:28:35.445Z,10.03
2019-04-22T19:31:09.393Z,11.10
2019-04-22T19:33:35.494Z,13.80
2019-04-22T19:36:11.075Z,13.33
2019-04-22T19:38:27.718Z,13.80
2019-04-22T19:41:13.411Z,11.67
2019-04-22T19:43:40.984Z,12.50
2019-04-22T19:46:09.021Z,11.80
2019-04-22T19:51:29.121Z,11.83
2019-04-22T19:53:42.029Z,11.77
2019-04-22T19:56:03.532Z,15.13
2019-04-22T19:58:37.518Z,11.57
2019-04-22T20:02:17.613Z,11.17
2019-04-22T20:05:05.960Z,13.43
2019-04-22T20:07:34.438Z,12.53
2019-04-22T20:10:04.680Z,15.17
2019-04-22T20:12:37.727Z,15.53
2019-04-22T20:15:07.138Z,16.50
2019-04-22T20:17:43.780Z,16.20
2019-04-22T20:20:09.775Z,15.47
2019-04-22T20:22:41.801Z,17.63
2019-04-22T20:24:58.378Z,16.37
2019-04-22T20:27:41.541Z,16.33
2019-04-22T20:30:14.087Z,13.30
2019-04-22T20:32:37.359Z,14.23
2019-04-22T20:35:15.743Z,16.43
2019-04-22T20:37:48.933Z,13.63
2019-04-22T20:40:20.167Z,16.33
2019-04-22T20:42:48.420Z,16.07
2019-04-22T20:45:18.146Z,13.60
2019-04-22T20:47:39.133Z,14.50
2019-04-22T20:50:21.073Z,16.23
2019-04-22T20:52:54.153Z,14.07
2019-04-22T20:55:13.854Z,14.67
2019-04-22T21:00:18.776Z,16.13
2019-04-22T21:02:41.849Z,19.03
2019-04-22T21:05:14.359Z,18.67
2019-04-22T21:07:47.950Z,16.00
2019-04-22T21:10:15.893Z,17.27
2019-04-22T21:12:43.727Z,17.63
2019-04-22T21:15:29.658Z,15.40
2019-04-22T21:17:53.983Z,17.03
2019-04-22T21:20:43.402Z,16.97
2019-04-22T21:22:55.900Z,15.60
2019-04-22T21:25:19.596Z,15.63
2019-04-22T21:27:58.215Z,13.93
2019-04-22T21:30:26.311Z,13.57
2019-04-22T21:32:57.997Z,14.03
2019-04-22T21:35:47.161Z,13.57
2019-04-22T21:38:04.533Z,11.47
2019-04-22T21:40:35.521Z,14.03
2019-04-22T21:43:08.930Z,13.70
2019-04-22T21:45:25.170Z,15.93
2019-04-22T21:48:13.768Z,15.30
2019-04-22T21:50:48.095Z,11.60
2019-04-22T21:53:07.386Z,10.27
2019-04-22T21:55:37.828Z,13.97
2019-04-22T21:58:17.960Z,12.93
2019-04-22T22:01:00.809Z,11.93
2019-04-22T22:03:23.547Z,12.73
2019-04-22T22:05:44.297Z,9.40
2019-04-22T22:08:27.093Z,11.63
2019-04-22T22:10:51.121Z,9.30
2019-04-22T22:13:27.049Z,10.47
2019-04-22T22:15:51.162Z,14.07
2019-04-22T22:18:19.708Z,12.90
2019-04-22T22:21:12.941Z,11.50
2019-04-22T22:23:31.694Z,10.27
2019-04-22T22:25:53.435Z,9.90
2019-04-22T22:28:45.429Z,8.53
2019-04-22T22:31:04.991Z,12.00
2019-04-22T22:33:32.862Z,10.80
2019-04-22T22:35:57.893Z,9.83
2019-04-22T22:38:27.351Z,9.90
2019-04-22T22:40:43.817Z,10.37
2019-04-22T22:43:21.607Z,9.80
2019-04-22T22:45:52.909Z,9.30
2019-04-22T22:48:39.740Z,12.30
2019-04-22T22:51:03.361Z,8.57
2019-04-22T22:53:40.463Z,9.40
2019-04-22T22:56:06.352Z,9.67
2019-04-22T22:58:34.722Z,10.40
2019-04-22T23:01:04.799Z,12.17
2019-04-22T23:03:51.113Z,9.13
2019-04-22T23:06:15.722Z,8.97
2019-04-22T23:08:38.790Z,10.87
2019-04-22T23:11:34.390Z,11.30
2019-04-22T23:13:57.466Z,9.20
2019-04-22T23:16:00.769Z,13.03
2019-04-22T23:18:19.821Z,10.67
2019-04-22T23:20:52.820Z,7.60
2019-04-22T23:23:38.158Z,8.27
2019-04-22T23:26:14.047Z,11.00
2019-04-22T23:28:39.454Z,7.83
2019-04-22T23:31:14.002Z,9.93
2019-04-22T23:33:57.239Z,12.13
2019-04-22T23:36:37.305Z,8.80
2019-04-22T23:39:20.307Z,10.70
2019-04-22T23:41:55.452Z,9.83
2019-04-22T23:46:52.238Z,8.40
2019-04-22T23:49:22.207Z,8.43
2019-04-22T23:52:13.317Z,10.00
2019-04-22T23:54:31.272Z,11.73
2019-04-22T23:56:56.415Z,8.53
